Elkhart, Kansas
Current Conditions -  °F | °C
As of 8:53 AM on Friday 28 Nov 2014 (Local Time) from KGUY Reporting Station
Clear Clear  
Wind Chill: 38°   Ceiling: Unl
Heat Index: 38°   Visibility: 10mi
Dew Point: 25°   Wind: 0mph
Humidity: 60%   Direction: NA
Pressure: 29.98"   Gusts: NA
Location:  37.01°N, 101.89°W
Report Text: KGUY 281453Z AUTO 00000KT 10SM CLR 03/M04 A2998 RMK AO2 SLP150 T00331039 55003
Loading
Personal Weather Stations






























Interactive Weather Map New forecast layout! Learn more

10-Day Weather Forecast

Advertisements
Track Severe Weather on mobile